METAR Data
IDs: Format: Raw Decoded Include TAF

Data at: 1702 UTC 03 Jul 2020

METAR for:KMNN (Marion Muni, OH, US)
Text:KMNN 031653Z AUTO 35007KT 9SM CLR 31/16 A3005 RMK AO2 SLP167 T03110161
Temperature: 31.1°C ( 88°F)
Dewpoint: 16.1°C ( 61°F) [RH = 41%]
Pressure (altimeter):30.05 inches Hg (1017.7 mb) [Sea level pressure: 1016.7 mb]
Winds:from the N (350 degrees) at 8 MPH (7 knots; 3.6 m/s)
Visibility: 9 sm ( 14 km)
Ceiling:at least 12,000 feet AGL
Clouds:sky clear below 12,000 feet AGL
QC Flag:automated observation with no human augmentation